• Join FlightAware (Why Join?)
  • Login
  • US Flag 
02:55AM EST


 

Airport Tracker/Info


-or-


 

Live Flight TrackerFlight Track Log ✈ DAL3682 ✈ 26-Apr-2013 ✈ KCVG - KMSP

Flight Track Log - Related Links

Times and Time Zones

All times are in EDT time to prevent confusion due to time zone crossing. See the DAL3682 flight status page for this flight to view local times or setup timezone preferences in your user account.

Time Position Orientation Groundspeed Altitude Reporting Facility
EDT Latitude Longitude Course Direction KTS MPH feet Rate Location/Type
11:33AM 39.0500 -84.7000 311° West 177 204 1,600  Level Cincinnati TRACON
11:34AM 39.0500 -84.7833 270° West 238 274 3,100 2,050 Climbing Cincinnati TRACON
11:35AM 39.0500 -84.8667 270° West 269 310 5,700 2,700 Climbing Cincinnati TRACON
11:36AM 38.9220 -84.8051 312° West  Level FlightAware Approximate
11:36AM 39.0456 -84.9242 264° West 273 314 7,600  Level Indianapolis Center
11:37AM 38.9872 -84.8984 312° West  Level FlightAware Approximate
11:37AM 39.0731 -85.0333 288° West 278 320 10,900  Level Indianapolis Center
11:38AM 39.0511 -84.9933 311° West  Level FlightAware Approximate
11:38AM 39.1264 -85.1219 308° West 316 364 11,400  Level Indianapolis Center
11:39AM 39.1975 -85.2131 315° West 353 406 13,500 1,839 Climbing Indianapolis Center
11:40AM 39.2689 -85.3072 314° West 362 417 15,200 1,645 Climbing Indianapolis Center
11:41AM 39.3403 -85.4028 314° West 367 422 16,900 1,210 Climbing Indianapolis Center
11:42AM 39.4122 -85.4983 314° West 369 425 17,700 1,016 Climbing Indianapolis Center
11:43AM 39.4847 -85.5953 314° West 373 429 19,000 1,113 Climbing Indianapolis Center
11:44AM 39.5694 -85.7100 314° West 373 429 20,000 1,016 Climbing Indianapolis Center
11:45AM 39.6439 -85.8092 314° West 379 436 21,100 726 Climbing Indianapolis Center
11:46AM 39.7167 -85.9083 314° West 379 436 21,500 435 Climbing Indianapolis Center
11:47AM 39.7917 -86.0092 314° West 387 445 22,000 484 Climbing Indianapolis Center
11:48AM 39.8658 -86.1108 314° West 391 450 22,500 584 Climbing Indianapolis Center
11:49AM 39.9406 -86.2119 314° West 391 450 23,100 690 Climbing Chicago Center
11:50AM 40.0144 -86.3131 314° West 386 444 23,800 629 Climbing Chicago Center
11:51AM 40.0878 -86.4139 314° West 385 443 24,400 581 Climbing Chicago Center
11:52AM 40.1606 -86.5142 314° West 382 440 25,000 484 Climbing Chicago Center
11:53AM 40.2331 -86.6161 313° West 383 441 25,400 387 Climbing Chicago Center
11:54AM 40.3242 -86.6953 326° Northwest 403 464 25,800 419 Climbing Chicago Center
11:56AM 40.5511 -86.8186 338° Northwest 406 467 26,700 419 Climbing Chicago Center
11:57AM 40.6569 -86.8767 337° Northwest 409 471 27,100 387 Climbing Chicago Center
11:58AM 40.7603 -86.9333 337° Northwest 403 464 27,500 387 Climbing Chicago Center
11:59AM 40.8625 -86.9892 338° Northwest 401 461 27,900 387 Climbing Chicago Center
12:00PM 40.9639 -87.0467 337° Northwest 398 458 28,300 435 Climbing Chicago Center
12:01PM 41.0875 -87.1144 338° Northwest 403 464 28,800 435 Climbing Chicago Center
12:02PM 41.1881 -87.1703 337° Northwest 397 457 29,200 387 Climbing Chicago Center
12:03PM 41.2889 -87.2275 337° Northwest 397 457 29,600 387 Climbing Chicago Center
12:04PM 41.3786 -87.3025 328° Northwest 385 443 30,000 195 Climbing Chicago Center
12:05PM 41.4661 -87.3842 325° Northwest 386 444 30,000  Level Chicago Center
12:07PM 41.5722 -87.4844 325° Northwest 393 452 30,000  Level Chicago Center
12:08PM 41.6617 -87.5675 325° Northwest 397 457 30,000  Level Chicago Center
12:09PM 41.7514 -87.6511 325° Northwest 397 457 30,000  Level Chicago Center
12:10PM 41.8414 -87.7375 324° Northwest 401 461 30,000  Level Chicago Center
12:11PM 41.9331 -87.8236 325° Northwest 405 466 30,000  Level Chicago Center
12:12PM 42.0419 -87.9283 324° Northwest 405 466 30,000  Level Chicago Center
12:13PM 42.1319 -88.0142 325° Northwest 402 463 30,000  Level Chicago Center
12:14PM 42.2203 -88.1006 324° Northwest 397 457 30,000  Level Chicago Center
12:15PM 42.3094 -88.1878 324° Northwest 398 458 30,000  Level Chicago Center
12:16PM 42.4050 -88.2803 324° Northwest 399 459 30,000  Level Chicago Center
12:17PM 42.4956 -88.3683 324° Northwest 399 459 30,000  Level Chicago Center
12:18PM 42.5864 -88.4569 324° Northwest 402 463 30,000  Level Chicago Center
12:19PM 42.6936 -88.5619 324° Northwest 405 466 30,000  Level Chicago Center
12:20PM 42.7856 -88.6536 324° Northwest 407 468 30,000  Level Chicago Center
12:21PM 42.8781 -88.7436 325° Northwest 407 468 30,000  Level Chicago Center
12:22PM 42.9703 -88.8356 324° Northwest 409 471 30,000  Level Chicago Center
12:23PM 43.0639 -88.9281 324° Northwest 410 472 30,000  Level Chicago Center
12:24PM 43.1567 -89.0222 323° Northwest 411 473 30,000  Level Chicago Center
12:25PM 43.2667 -89.1319 324° Northwest 415 478 30,000  Level Chicago Center
12:26PM 43.3589 -89.2258 324° Northwest 412 474 30,000  Level Chicago Center
12:27PM 43.4519 -89.3192 324° Northwest 412 474 30,000  Level Chicago Center
12:28PM 43.5442 -89.4122 324° Northwest 411 473 30,000  Level Chicago Center
12:29PM 43.6519 -89.5219 324° Northwest 411 473 30,000  Level Minneapolis Center
12:30PM 43.7444 -89.6169 323° Northwest 411 473 30,000  Level Minneapolis Center
12:31PM 43.8364 -89.7131 323° Northwest 412 474 30,000  Level Minneapolis Center
12:32PM 43.9283 -89.8067 324° Northwest 412 474 30,000  Level Minneapolis Center
12:34PM 44.0358 -89.9178 323° Northwest 412 474 30,000  Level Minneapolis Center
12:35PM 44.1144 -90.0325 314° West 411 473 30,000  Level Minneapolis Center
12:36PM 44.1850 -90.1594 308° West 414 476 30,000  Level Minneapolis Center
12:37PM 44.2550 -90.2853 308° West 411 473 30,000  Level Minneapolis Center
12:38PM 44.3197 -90.4175 304° West 411 473 30,000  Level Minneapolis Center
12:39PM 44.3758 -90.5578 299° West 413 475 30,000  Level Minneapolis Center
12:40PM 44.4414 -90.7206 299° West 413 475 30,000  Level Minneapolis Center
12:41PM 44.4981 -90.8614 299° West 414 476 30,000  Level Minneapolis Center
12:42PM 44.5533 -90.9994 299° West 412 474 30,000  Level Minneapolis Center
12:43PM 44.6083 -91.1403 299° West 413 475 30,000 -1,065 Level Minneapolis Center
12:44PM 44.6628 -91.2775 299° West 409 471 27,800 -2,516 Descending Minneapolis Center
12:45PM 44.7250 -91.4375 299° West 395 455 24,800 -2,565 Descending Minneapolis Center
12:46PM 44.7761 -91.5675 299° West 387 445 22,500 -1,897 Descending Minneapolis Center
12:47PM 44.8253 -91.6950 299° West 378 435 20,500 -1,933 Descending Minneapolis Center
12:48PM 44.8908 -91.8681 298° West 362 417 17,700 -2,058 Descending Minneapolis Center
12:49PM 44.9378 -91.9878 299° West 353 406 15,800 -2,081 Descending Minneapolis Center
12:50PM 44.9894 -92.1219 299° West 328 377 13,400 -2,129 Descending Minneapolis Center
12:51PM 45.0311 -92.2378 297° West 334 384 11,400 -1,161 Descending Minneapolis Center
12:53PM 45.0444 -92.3544 279° West 319 367 11,000 -339 Descending Minneapolis Center
12:54PM 44.9983 -92.4517 236° Southwest 298 343 10,700 -774 Descending Minneapolis Center
12:55PM 44.9483 -92.5236 226° Southwest 260 299 9,400 -1,452 Descending Minneapolis Center
12:56PM 44.8997 -92.5975 227° Southwest 259 298 7,700 -1,051 Descending Minneapolis Center
12:57PM 44.8608 -92.7278 247° West 257 296 7,000 -788 Descending Minneapolis Center
12:58PM 44.8358 -92.8181 249° West 250 288 5,900 -1,403 Descending Minneapolis Center
12:59PM 44.8283 -92.9153 264° West 252 290 4,100 -919 Descending Minneapolis Center
01:00PM 44.8269 -93.0047 269° West 227 261 4,000 -97 Descending Minneapolis Center